Time;durP1;ratioP1;P1;durP2;ratioP2;P2;SDS_P1;SDS_P2;PMS_P1;PMS_P2;Temp;Humidity;BMP_temperature;BMP_pressure;BME280_temperature;BME280_humidity;BME280_pressure;Samples;Min_cycle;Max_cycle;Signal;HPM_P1;HPM_P2
2022/06/16 00:00:33;;;;;;;;;;;;;;;32.50;24.59;101185.22;4417651;32;20039;-69
2022/06/16 00:02:59;;;;;;;;;;;;;;;32.33;24.87;101184.97;4414164;32;20397;-69
2022/06/16 00:05:26;;;;;;;;;;;;;;;32.68;24.46;101193.56;4415678;32;19992;-70
2022/06/16 00:07:52;;;;;;;;;;;;;;;32.46;24.79;101188.50;4414794;32;20007;-69
2022/06/16 00:10:18;;;;;;;;;;;;;;;32.49;24.81;101186.59;4415699;32;19961;-69
2022/06/16 00:12:43;;;;;;;;;;;;;;;32.44;24.81;101182.50;4415386;32;19999;-69
2022/06/16 00:15:11;;;;;;;;;;;;;;;32.37;25.03;101186.16;4414960;32;20458;-69
2022/06/16 00:17:37;;;;;;;;;;;;;;;32.31;25.12;101184.78;4411965;32;19969;-69
2022/06/16 00:20:04;;;;;;;;;;;;;;;32.35;25.10;101182.28;4411774;32;19985;-69
2022/06/16 00:22:31;;;;;;;;;;;;;;;32.38;24.99;101181.12;4416455;32;20014;-69
2022/06/16 00:24:57;;;;;;;;;;;;;;;32.23;25.13;101189.81;4416486;32;20000;-69
2022/06/16 00:27:23;;;;;;;;;;;;;;;32.15;25.27;101198.53;4400149;32;20295;-69
2022/06/16 00:29:49;;;;;;;;;;;;;;;32.08;25.36;101190.56;4413655;32;20375;-69
2022/06/16 00:32:15;;;;;;;;;;;;;;;31.89;25.40;101193.06;4415428;32;19990;-69
2022/06/16 00:34:40;;;;;;;;;;;;;;;31.82;25.53;101193.03;4401202;32;20044;-69
2022/06/16 00:37:05;;;;;;;;;;;;;;;31.92;25.39;101194.03;4415756;32;19946;-69
2022/06/16 00:39:31;;;;;;;;;;;;;;;31.84;25.44;101188.16;4402900;32;20308;-69
2022/06/16 00:42:05;;;;;;;;;;;;;;;31.82;25.40;101195.94;4415399;32;19995;-69
2022/06/16 00:47:07;;;;;;;;;;;;;;;32.14;25.37;101197.00;3961708;31;15764538;-69
2022/06/16 00:49:33;;;;;;;;;;;;;;;32.14;25.37;101197.00;4435254;32;20361;-69
2022/06/16 00:52:02;;;;;;;;;;;;;;;31.63;25.60;101201.28;4435660;32;20420;-69
2022/06/16 00:57:07;;;;;;;;;;;;;;;32.15;25.25;101191.97;3950780;32;15721606;-70
2022/06/16 00:59:35;;;;;;;;;;;;;;;32.15;25.25;101191.97;4427480;32;20023;-70
2022/06/16 01:02:03;;;;;;;;;;;;;;;31.60;25.71;101200.28;4424268;32;19960;-70
2022/06/16 01:05:00;;;;;;;;;;;;;;;31.63;25.73;101195.44;4428772;32;19968;-70
2022/06/16 01:07:15;;;;;;;;;;;;;;;31.52;25.88;101192.87;4430141;32;20011;-70
2022/06/16 01:09:43;;;;;;;;;;;;;;;31.58;25.77;101188.44;4430280;32;20001;-70
2022/06/16 01:31:32;;;;;;;;;;;;;;;31.67;25.93;101195.84;3950743;32;15723529;-69
2022/06/16 01:34:18;;;;;;;;;;;;;;;31.67;25.93;101195.84;4426508;32;20509;-69
2022/06/16 01:36:54;;;;;;;;;;;;;;;31.33;26.20;101201.12;4426326;32;20016;-69
2022/06/16 01:39:26;;;;;;;;;;;;;;;31.35;26.08;101207.91;4425939;32;20415;-69
2022/06/16 01:42:02;;;;;;;;;;;;;;;31.46;26.11;101210.50;4428064;32;20743;-69
2022/06/16 01:47:10;;;;;;;;;;;;;;;31.80;25.65;101216.84;3954435;32;15752584;-69
2022/06/16 01:49:40;;;;;;;;;;;;;;;31.80;25.65;101216.84;4433205;32;19953;-70
2022/06/16 01:52:11;;;;;;;;;;;;;;;31.34;26.03;101218.00;4435449;32;20373;-70
2022/06/16 01:54:42;;;;;;;;;;;;;;;31.17;26.18;101222.72;4433762;32;19953;-70
2022/06/16 01:59:47;;;;;;;;;;;;;;;31.72;25.64;101242.22;3952112;32;15725391;-70
2022/06/16 02:02:15;;;;;;;;;;;;;;;31.72;25.64;101242.22;4427781;32;19983;-70
2022/06/16 02:04:44;;;;;;;;;;;;;;;31.10;26.13;101244.56;4429798;32;19981;-70
2022/06/16 02:07:13;;;;;;;;;;;;;;;30.93;26.15;101231.84;4428754;32;19968;-70
2022/06/16 02:09:41;;;;;;;;;;;;;;;30.88;26.21;101229.84;4433958;32;20335;-70
2022/06/16 02:12:10;;;;;;;;;;;;;;;30.86;26.23;101230.41;4426612;32;19980;-70
2022/06/16 02:14:40;;;;;;;;;;;;;;;30.95;26.00;101237.88;4426920;32;19973;-70
2022/06/16 02:17:08;;;;;;;;;;;;;;;30.86;25.96;101223.84;4427197;32;20044;-70
2022/06/16 02:19:35;;;;;;;;;;;;;;;30.87;25.67;101217.47;4428021;32;19977;-70
2022/06/16 02:22:01;;;;;;;;;;;;;;;30.77;25.59;101219.31;4427285;32;20003;-70
2022/06/16 02:24:28;;;;;;;;;;;;;;;30.72;25.61;101223.91;4429206;32;20354;-70
2022/06/16 02:26:56;;;;;;;;;;;;;;;30.86;25.27;101223.84;4430509;32;19965;-70
2022/06/16 02:32:18;;;;;;;;;;;;;;;31.11;25.52;101222.88;3949380;32;15722263;-70
2022/06/16 02:40:31;;;;;;;;;;;;;;;31.09;25.70;101225.56;3952914;32;15723493;-70
2022/06/16 02:45:53;;;;;;;;;;;;;;;30.90;25.66;101221.34;3951293;32;15724491;-70
2022/06/16 02:56:36;;;;;;;;;;;;;;;30.91;25.51;101223.69;3950027;32;15722423;-70
2022/06/16 02:59:03;;;;;;;;;;;;;;;30.91;25.51;101223.69;4429527;32;20017;-70
2022/06/16 03:01:32;;;;;;;;;;;;;;;30.24;26.11;101223.81;4425453;32;19997;-70
2022/06/16 03:04:00;;;;;;;;;;;;;;;30.16;26.13;101215.00;4428759;32;20341;-70
2022/06/16 03:06:27;;;;;;;;;;;;;;;30.10;26.19;101225.97;4426571;32;19954;-70
2022/06/16 03:08:53;;;;;;;;;;;;;;;30.10;26.43;101223.06;4428042;32;19969;-70
2022/06/16 03:11:19;;;;;;;;;;;;;;;30.09;26.42;101227.31;4429498;32;19966;-70
2022/06/16 03:13:44;;;;;;;;;;;;;;;30.14;26.39;101219.81;4426011;32;19953;-70
2022/06/16 03:16:10;;;;;;;;;;;;;;;30.05;26.24;101218.19;4430850;32;19996;-70
2022/06/16 03:18:36;;;;;;;;;;;;;;;30.07;26.21;101226.31;4423938;32;19996;-70
2022/06/16 03:21:01;;;;;;;;;;;;;;;29.90;26.40;101220.91;4431861;32;20572;-70
2022/06/16 03:23:27;;;;;;;;;;;;;;;30.02;26.40;101221.41;4426246;32;19950;-70
2022/06/16 03:25:53;;;;;;;;;;;;;;;29.92;26.48;101224.03;4426543;32;19975;-70
2022/06/16 03:28:19;;;;;;;;;;;;;;;29.92;26.37;101224.03;4425906;32;20007;-69
2022/06/16 03:30:44;;;;;;;;;;;;;;;29.91;26.53;101227.50;4424395;32;20458;-70
2022/06/16 03:33:11;;;;;;;;;;;;;;;29.73;26.70;101231.34;4427058;32;19997;-70
2022/06/16 03:35:37;;;;;;;;;;;;;;;29.73;26.51;101231.34;4426285;32;20264;-70
2022/06/16 03:38:06;;;;;;;;;;;;;;;29.61;26.73;101241.59;4429851;32;20312;-70
2022/06/16 03:40:31;;;;;;;;;;;;;;;29.78;26.57;101233.31;4429839;32;19959;-70
2022/06/16 03:42:56;;;;;;;;;;;;;;;29.69;26.50;101236.72;4428991;32;19988;-70
2022/06/16 03:45:22;;;;;;;;;;;;;;;29.49;26.71;101241.06;4426547;32;19962;-70
2022/06/16 03:47:48;;;;;;;;;;;;;;;29.90;26.18;101240.44;4427083;32;20001;-70
2022/06/16 03:50:15;;;;;;;;;;;;;;;30.07;25.95;101247.41;4425087;32;19954;-70
2022/06/16 03:52:41;;;;;;;;;;;;;;;30.12;25.90;101242.81;4429938;32;20331;-70
2022/06/16 03:55:07;;;;;;;;;;;;;;;30.03;25.62;101246.22;4427335;32;20018;-70
2022/06/16 03:57:33;;;;;;;;;;;;;;;29.93;25.78;101240.09;4425348;32;20379;-70
2022/06/16 03:59:58;;;;;;;;;;;;;;;29.87;25.91;101245.25;4426622;32;20421;-70
2022/06/16 04:02:27;;;;;;;;;;;;;;;29.86;25.74;101242.91;4426757;32;19962;-70
2022/06/16 04:04:53;;;;;;;;;;;;;;;29.75;26.28;101249.72;4424883;32;20284;-70
2022/06/16 04:07:19;;;;;;;;;;;;;;;30.08;25.75;101251.88;4416571;32;19958;-70
2022/06/16 04:09:44;;;;;;;;;;;;;;;30.02;25.86;101253.34;4421316;32;20035;-70
2022/06/16 04:12:09;;;;;;;;;;;;;;;29.89;25.66;101244.69;4415320;32;20017;-70
2022/06/16 04:14:35;;;;;;;;;;;;;;;30.20;25.52;101250.31;4414590;32;20701;-70
2022/06/16 04:17:01;;;;;;;;;;;;;;;29.81;25.87;101252.50;4417275;32;20017;-70
2022/06/16 04:19:27;;;;;;;;;;;;;;;30.06;25.67;101263.28;4415330;32;19977;-70
2022/06/16 04:21:53;;;;;;;;;;;;;;;30.07;25.66;101264.06;4416425;32;20053;-70
2022/06/16 04:24:20;;;;;;;;;;;;;;;30.05;25.57;101260.94;4414856;32;20433;-70
2022/06/16 04:26:48;;;;;;;;;;;;;;;29.81;25.74;101272.81;4417443;32;20586;-70
2022/06/16 04:29:14;;;;;;;;;;;;;;;30.24;25.48;101270.28;4414462;32;20004;-70
2022/06/16 04:31:40;;;;;;;;;;;;;;;29.89;25.73;101276.59;4414816;32;20053;-70
2022/06/16 04:34:06;;;;;;;;;;;;;;;29.82;25.47;101280.19;4416120;32;19953;-70
2022/06/16 04:36:32;;;;;;;;;;;;;;;30.00;25.68;101288.75;4415468;32;20043;-70
2022/06/16 04:38:58;;;;;;;;;;;;;;;30.07;25.32;101285.16;4417458;32;19950;-70
2022/06/16 04:41:23;;;;;;;;;;;;;;;30.01;25.52;101292.44;4415857;32;20606;-70
2022/06/16 04:43:50;;;;;;;;;;;;;;;30.07;25.40;101287.28;4415944;32;20603;-70
2022/06/16 04:46:16;;;;;;;;;;;;;;;29.97;25.52;101292.78;4416803;32;19994;-70
2022/06/16 04:48:43;;;;;;;;;;;;;;;30.12;25.37;101306.69;4417562;32;20008;-70
2022/06/16 04:51:09;;;;;;;;;;;;;;;30.05;25.29;101296.56;4416053;32;20014;-70
2022/06/16 04:53:35;;;;;;;;;;;;;;;29.96;25.23;101304.94;4419374;32;20018;-70
2022/06/16 04:56:02;;;;;;;;;;;;;;;29.80;25.36;101303.19;4415182;32;19965;-70
2022/06/16 04:58:28;;;;;;;;;;;;;;;30.32;25.04;101308.91;4415997;32;20098;-70
2022/06/16 05:00:54;;;;;;;;;;;;;;;30.70;24.62;101302.16;4415672;32;19980;-70
2022/06/16 05:03:21;;;;;;;;;;;;;;;30.74;24.47;101305.50;4414225;32;20004;-70
2022/06/16 05:05:47;;;;;;;;;;;;;;;30.74;24.56;101305.50;4418657;32;20388;-70
2022/06/16 05:08:14;;;;;;;;;;;;;;;30.94;24.02;101312.66;4416866;32;19958;-70
2022/06/16 05:10:40;;;;;;;;;;;;;;;31.10;24.16;101313.59;4415205;32;19995;-70
2022/06/16 05:13:06;;;;;;;;;;;;;;;31.08;23.87;101316.28;4413529;32;19993;-70
2022/06/16 05:15:32;;;;;;;;;;;;;;;31.16;23.81;101314.97;4416192;32;20399;-70
2022/06/16 05:17:58;;;;;;;;;;;;;;;31.32;23.71;101325.41;4414811;32;20011;-70
2022/06/16 05:20:24;;;;;;;;;;;;;;;31.68;23.49;101323.31;4414798;32;20009;-70
2022/06/16 05:22:49;;;;;;;;;;;;;;;31.99;23.03;101312.63;4416625;32;20241;-70
2022/06/16 05:25:15;;;;;;;;;;;;;;;32.29;22.68;101309.84;4414189;32;20053;-70
2022/06/16 05:27:40;;;;;;;;;;;;;;;32.52;22.30;101310.72;4417541;32;19996;-70
2022/06/16 05:30:07;;;;;;;;;;;;;;;32.66;22.45;101315.00;4416891;32;20402;-70
2022/06/16 05:32:32;;;;;;;;;;;;;;;32.64;22.18;101311.91;4400180;32;19953;-70
2022/06/16 05:34:58;;;;;;;;;;;;;;;32.65;22.28;101311.31;4414991;32;21007;-70
2022/06/16 05:37:23;;;;;;;;;;;;;;;32.97;22.10;101310.81;4414312;32;20004;-70
2022/06/16 05:39:49;;;;;;;;;;;;;;;33.00;22.01;101308.88;4415679;32;19979;-70
2022/06/16 05:42:15;;;;;;;;;;;;;;;33.08;21.92;101321.31;4414070;32;20313;-70
2022/06/16 05:44:42;;;;;;;;;;;;;;;33.24;21.61;101314.09;4417694;32;20434;-70
2022/06/16 05:47:07;;;;;;;;;;;;;;;33.47;21.28;101317.81;4412153;32;20015;-70
2022/06/16 05:49:38;;;;;;;;;;;;;;;33.48;20.80;101328.91;4414594;32;20380;-70
2022/06/16 05:52:06;;;;;;;;;;;;;;;33.88;20.73;101329.81;4414584;32;19996;-70
2022/06/16 05:54:32;;;;;;;;;;;;;;;34.13;20.27;101324.06;4413703;32;19996;-70
2022/06/16 05:56:57;;;;;;;;;;;;;;;34.45;19.96;101326.28;4415920;32;20000;-70
2022/06/16 05:59:23;;;;;;;;;;;;;;;34.79;19.19;101329.38;4414755;32;19968;-70
2022/06/16 06:01:49;;;;;;;;;;;;;;;34.96;19.36;101327.31;4416867;32;20008;-70
2022/06/16 06:04:14;;;;;;;;;;;;;;;35.05;19.12;101340.50;4413384;32;20002;-70
2022/06/16 06:06:40;;;;;;;;;;;;;;;35.13;19.16;101335.37;4413230;32;20061;-70
2022/06/16 06:17:23;;;;;;;;;;;;;;;35.55;18.92;101350.81;4414343;32;20040;-70
2022/06/16 06:19:49;;;;;;;;;;;;;;;35.59;18.78;101351.94;4415655;32;19993;-71
2022/06/16 06:22:19;;;;;;;;;;;;;;;35.76;18.59;101351.16;4412963;32;19989;-70
2022/06/16 06:29:55;;;;;;;;;;;;;;;36.03;18.46;101343.28;3954674;32;15723480;-70
2022/06/16 06:32:22;;;;;;;;;;;;;;;35.94;18.55;101332.25;4429602;32;19997;-70
2022/06/16 06:34:48;;;;;;;;;;;;;;;35.75;18.71;101324.06;4430246;32;20011;-70
2022/06/16 06:37:14;;;;;;;;;;;;;;;35.80;18.65;101328.09;4431107;32;19969;-70
2022/06/16 06:39:40;;;;;;;;;;;;;;;35.86;18.39;101311.81;4427558;32;20349;-70
2022/06/16 06:42:05;;;;;;;;;;;;;;;35.88;18.45;101320.00;4411273;32;20004;-70
2022/06/16 06:44:31;;;;;;;;;;;;;;;36.16;18.32;101314.38;4423481;32;19971;-70
2022/06/16 06:46:57;;;;;;;;;;;;;;;36.18;18.27;101326.28;4428252;32;20006;-70
2022/06/16 06:49:23;;;;;;;;;;;;;;;36.32;18.02;101334.75;4425645;32;21111;-70
2022/06/16 06:51:49;;;;;;;;;;;;;;;36.14;17.94;101325.19;4422060;32;20011;-70
2022/06/16 06:54:14;;;;;;;;;;;;;;;36.19;17.95;101324.13;4417041;32;19972;-70
2022/06/16 06:56:41;;;;;;;;;;;;;;;36.55;17.61;101333.03;4425590;32;19968;-70
2022/06/16 06:59:11;;;;;;;;;;;;;;;36.63;17.51;101341.72;4426842;32;19957;-70
2022/06/16 07:01:36;;;;;;;;;;;;;;;36.61;17.55;101338.63;4425748;32;20375;-72
2022/06/16 07:04:02;;;;;;;;;;;;;;;36.49;17.80;101343.47;4423345;32;20084;-70
2022/06/16 07:06:31;;;;;;;;;;;;;;;36.22;18.22;101337.56;4428175;32;20001;-70
2022/06/16 07:08:56;;;;;;;;;;;;;;;36.22;18.16;101344.22;4426790;32;19997;-70
2022/06/16 07:11:22;;;;;;;;;;;;;;;36.17;18.24;101348.16;4431016;32;19988;-70
2022/06/16 07:13:47;;;;;;;;;;;;;;;35.82;18.00;101352.50;4414999;32;19961;-70
2022/06/16 07:16:14;;;;;;;;;;;;;;;36.06;17.54;101342.06;4421695;32;19976;-70
2022/06/16 07:18:39;;;;;;;;;;;;;;;35.99;17.63;101345.87;4422591;32;20050;-70
2022/06/16 07:21:06;;;;;;;;;;;;;;;35.45;18.00;101353.62;4423300;32;19984;-70
2022/06/16 07:23:32;;;;;;;;;;;;;;;35.66;17.76;101348.16;4422437;32;20012;-70
2022/06/16 07:25:58;;;;;;;;;;;;;;;36.16;17.61;101340.75;4423866;32;20079;-70
2022/06/16 07:28:24;;;;;;;;;;;;;;;36.22;17.62;101334.63;4420382;32;20587;-70
2022/06/16 07:30:49;;;;;;;;;;;;;;;36.41;18.11;101342.81;4423313;32;20539;-70
2022/06/16 07:33:15;;;;;;;;;;;;;;;36.45;18.19;101341.00;4424969;32;20283;-70
2022/06/16 07:35:43;;;;;;;;;;;;;;;36.49;17.80;101329.59;4421405;32;20418;-70
2022/06/16 07:38:09;;;;;;;;;;;;;;;36.40;17.84;101332.47;4422450;32;19958;-70
2022/06/16 07:40:34;;;;;;;;;;;;;;;36.58;17.73;101339.84;4416920;32;19965;-69
2022/06/16 07:43:00;;;;;;;;;;;;;;;36.51;17.61;101332.72;4415259;32;20038;-70
2022/06/16 07:45:27;;;;;;;;;;;;;;;36.64;17.35;101326.44;4412362;32;19953;-70
2022/06/16 07:47:52;;;;;;;;;;;;;;;37.01;16.60;101324.31;4409408;32;20138;-70
2022/06/16 07:50:20;;;;;;;;;;;;;;;37.06;16.75;101320.34;4402125;32;19949;-70
2022/06/16 07:52:45;;;;;;;;;;;;;;;37.08;16.66;101321.25;4411382;32;19966;-69
2022/06/16 07:55:11;;;;;;;;;;;;;;;37.26;16.44;101322.75;4414525;32;20106;-70
2022/06/16 07:57:41;;;;;;;;;;;;;;;37.09;16.53;101331.59;4410730;32;20446;-68
2022/06/16 08:00:07;;;;;;;;;;;;;;;37.21;16.39;101328.91;4411220;32;20270;-68
2022/06/16 08:02:33;;;;;;;;;;;;;;;37.24;16.32;101333.56;4413078;32;19981;-68
2022/06/16 08:04:59;;;;;;;;;;;;;;;37.15;16.14;101325.47;4411990;32;20432;-68
2022/06/16 08:07:24;;;;;;;;;;;;;;;36.70;16.50;101318.16;4410754;32;20446;-69
2022/06/16 08:09:50;;;;;;;;;;;;;;;36.87;16.18;101329.06;4412380;32;20351;-70
2022/06/16 08:12:17;;;;;;;;;;;;;;;36.98;16.13;101334.34;4415765;32;20022;-71
2022/06/16 08:14:44;;;;;;;;;;;;;;;37.63;15.70;101329.31;4412559;32;19973;-70
2022/06/16 08:17:12;;;;;;;;;;;;;;;37.60;15.72;101336.41;4414353;32;19989;-70
2022/06/16 08:19:38;;;;;;;;;;;;;;;37.73;15.47;101341.91;4415304;32;19983;-71
2022/06/16 08:22:04;;;;;;;;;;;;;;;37.91;15.33;101341.13;4405938;32;20024;-70
2022/06/16 08:24:30;;;;;;;;;;;;;;;38.00;15.01;101350.56;4412185;32;19996;-70
2022/06/16 08:26:56;;;;;;;;;;;;;;;38.06;14.23;101345.91;4413129;32;20564;-70
2022/06/16 08:29:22;;;;;;;;;;;;;;;38.01;14.53;101355.81;4408365;32;19954;-69
2022/06/16 08:31:47;;;;;;;;;;;;;;;37.97;14.58;101354.75;4411284;32;20249;-70
2022/06/16 08:34:13;;;;;;;;;;;;;;;38.04;14.50;101331.06;4413955;32;19969;-69
2022/06/16 08:36:39;;;;;;;;;;;;;;;38.10;14.39;101322.75;4414708;32;20469;-69
2022/06/16 08:39:06;;;;;;;;;;;;;;;37.97;14.59;101326.09;4409350;32;20056;-70
2022/06/16 08:46:51;;;;;;;;;;;;;;;39.03;13.94;101313.56;3944052;32;15728652;-67
2022/06/16 08:49:39;;;;;;;;;;;;;;;39.03;13.94;101313.56;4417687;32;19993;-70
2022/06/16 08:52:25;;;;;;;;;;;;;;;38.71;14.02;101308.22;4418855;32;20385;-70
2022/06/16 08:55:00;;;;;;;;;;;;;;;38.81;14.00;101300.16;4421513;32;20013;-69
2022/06/16 08:57:46;;;;;;;;;;;;;;;39.17;13.55;101296.88;4418722;32;20398;-71
2022/06/16 09:00:16;;;;;;;;;;;;;;;39.22;13.52;101274.37;4420484;32;21034;-70
2022/06/16 09:02:45;;;;;;;;;;;;;;;39.96;13.06;101278.84;4417716;32;20028;-70
2022/06/16 09:07:53;;;;;;;;;;;;;;;41.40;12.10;101259.53;3925670;32;15860138;-70
2022/06/16 09:10:24;;;;;;;;;;;;;;;41.40;12.10;101259.53;4397367;32;20384;-70
2022/06/16 09:21:08;;;;;;;;;;;;;;;42.69;10.92;101291.66;3947052;32;15722406;-68
2022/06/16 09:23:53;;;;;;;;;;;;;;;42.69;10.92;101291.66;4424352;32;20473;-70
2022/06/16 09:26:24;;;;;;;;;;;;;;;42.84;10.67;101302.09;4424650;32;19990;-70
2022/06/16 09:31:47;;;;;;;;;;;;;;;44.76;10.03;101312.28;3944920;32;15721365;-69
2022/06/16 09:34:18;;;;;;;;;;;;;;;44.76;10.03;101312.28;4418959;32;19990;-68
2022/06/16 09:36:45;;;;;;;;;;;;;;;44.56;9.59;101314.25;4421923;32;20436;-69
2022/06/16 09:39:16;;;;;;;;;;;;;;;43.94;9.85;101322.19;4417070;32;20005;-68
2022/06/16 09:47:12;;;;;;;;;;;;;;;45.90;9.14;101313.88;3946198;32;15723397;-70
2022/06/16 09:49:42;;;;;;;;;;;;;;;45.90;9.14;101313.88;4420528;32;19991;-70
2022/06/16 09:52:14;;;;;;;;;;;;;;;45.25;8.85;101317.56;4413829;32;20027;-70
2022/06/16 09:54:43;;;;;;;;;;;;;;;44.81;8.84;101322.16;4417448;32;19981;-70
2022/06/16 09:59:47;;;;;;;;;;;;;;;44.53;8.69;101324.50;3951558;32;15725104;-70
2022/06/16 10:02:18;;;;;;;;;;;;;;;44.53;8.69;101324.50;4436653;32;20384;-70
2022/06/16 10:04:46;;;;;;;;;;;;;;;43.28;9.72;101318.63;4435779;32;20025;-70
2022/06/16 10:07:18;;;;;;;;;;;;;;;43.60;9.48;101327.06;4437304;32;20017;-70
2022/06/16 10:10:03;;;;;;;;;;;;;;;43.86;9.20;101333.66;4435169;32;20440;-69
2022/06/16 10:12:49;;;;;;;;;;;;;;;43.95;9.31;101326.72;4433667;32;21453;-69
2022/06/16 10:15:18;;;;;;;;;;;;;;;43.73;9.40;101325.50;4435985;32;20020;-70
2022/06/16 10:17:45;;;;;;;;;;;;;;;43.93;9.44;101318.47;4432360;32;19957;-69
2022/06/16 10:20:13;;;;;;;;;;;;;;;44.39;9.28;101326.75;4435614;32;19990;-70
2022/06/16 10:22:42;;;;;;;;;;;;;;;45.04;8.97;101336.69;4435038;32;20559;-70
2022/06/16 10:30:24;;;;;;;;;;;;;;;45.61;9.67;101349.00;3942659;32;15723583;-70
2022/06/16 10:33:08;;;;;;;;;;;;;;;45.61;9.67;101349.00;4421389;32;19997;-69
2022/06/16 10:35:35;;;;;;;;;;;;;;;45.01;9.95;101331.28;4421347;32;20005;-70
2022/06/16 10:38:00;;;;;;;;;;;;;;;45.62;9.86;101335.66;4418962;32;19997;-70
2022/06/16 10:43:08;;;;;;;;;;;;;;;44.91;10.00;101325.63;3949273;32;15726377;-70
2022/06/16 10:45:34;;;;;;;;;;;;;;;44.91;10.00;101325.63;4435397;32;20033;-70
2022/06/16 10:48:03;;;;;;;;;;;;;;;44.96;9.97;101323.62;4433582;32;20004;-70
2022/06/16 10:56:06;;;;;;;;;;;;;;;45.90;9.20;101304.97;3945553;32;15723406;-70
2022/06/16 10:58:42;;;;;;;;;;;;;;;45.90;9.20;101304.97;4415387;32;20004;-69
2022/06/16 11:01:16;;;;;;;;;;;;;;;45.62;9.70;101312.63;4421069;32;20315;-70
2022/06/16 11:03:43;;;;;;;;;;;;;;;45.65;9.57;101319.41;4419190;32;19997;-69
2022/06/16 11:06:11;;;;;;;;;;;;;;;45.56;9.56;101311.59;4419882;32;22136;-69
2022/06/16 11:08:40;;;;;;;;;;;;;;;45.52;9.65;101320.34;4414793;32;20204;-69
2022/06/16 11:11:06;;;;;;;;;;;;;;;44.68;10.05;101323.78;4421467;32;20140;-69
2022/06/16 11:13:33;;;;;;;;;;;;;;;44.99;9.86;101322.28;4417445;32;20012;-69
2022/06/16 11:15:59;;;;;;;;;;;;;;;45.21;9.68;101315.16;4417928;32;20388;-69
2022/06/16 11:18:26;;;;;;;;;;;;;;;44.98;9.66;101338.56;4419546;32;20217;-70
2022/06/16 11:20:55;;;;;;;;;;;;;;;45.18;9.53;101358.13;4420366;32;19969;-69
2022/06/16 11:28:41;;;;;;;;;;;;;;;46.59;8.31;101356.28;3950260;31;15845522;-70
2022/06/16 11:31:06;;;;;;;;;;;;;;;46.72;8.28;101373.22;4437548;32;20319;-70
2022/06/16 11:41:41;;;;;;;;;;;;;;;45.75;9.02;101371.25;3959182;32;15723532;-70
2022/06/16 11:46:54;;;;;;;;;;;;;;;45.74;9.21;101378.63;3946644;32;15723370;-70
2022/06/16 11:54:43;;;;;;;;;;;;;;;46.94;8.76;101394.22;3958241;31;15718135;-70
2022/06/16 12:02:39;;;;;;;;;;;;;;;46.91;9.20;101396.37;3940153;32;15722295;-70
2022/06/16 12:07:50;;;;;;;;;;;;;;;46.44;9.55;101383.94;3942900;32;15724547;-70
2022/06/16 12:10:36;;;;;;;;;;;;;;;46.44;9.55;101383.94;4424982;32;20334;-70
2022/06/16 12:13:09;;;;;;;;;;;;;;;46.32;9.59;101390.13;4421311;32;20215;-70
2022/06/16 12:15:38;;;;;;;;;;;;;;;46.66;9.53;101370.00;4418784;32;20359;-70
2022/06/16 12:18:24;;;;;;;;;;;;;;;47.48;9.19;101376.25;4424317;32;19996;-70
2022/06/16 12:42:03;;;;;;;;;;;;;;;46.66;9.33;101364.03;4419215;32;20380;-70
2022/06/16 12:44:32;;;;;;;;;;;;;;;47.34;8.86;101369.78;4412905;32;20034;-71
2022/06/16 12:47:05;;;;;;;;;;;;;;;48.44;8.16;101364.09;4418806;32;20011;-70
2022/06/16 12:49:36;;;;;;;;;;;;;;;48.70;7.99;101358.22;4419009;32;19981;-70
2022/06/16 12:52:08;;;;;;;;;;;;;;;48.55;8.33;101353.22;4419997;32;20387;-70
2022/06/16 12:54:51;;;;;;;;;;;;;;;46.85;9.31;101345.47;4421524;32;20145;-71
2022/06/16 12:57:19;;;;;;;;;;;;;;;47.49;9.02;101335.25;4421192;32;20323;-70
2022/06/16 12:59:51;;;;;;;;;;;;;;;46.78;9.24;101351.84;4418388;32;20385;-70
2022/06/16 13:02:19;;;;;;;;;;;;;;;45.95;9.69;101344.59;4418222;32;20016;-70
2022/06/16 13:04:46;;;;;;;;;;;;;;;46.09;10.01;101342.97;4414205;32;20267;-70
2022/06/16 13:07:16;;;;;;;;;;;;;;;46.42;9.75;101327.28;4419110;32;20431;-70
2022/06/16 13:09:42;;;;;;;;;;;;;;;47.30;9.15;101324.13;4422305;32;20075;-70
2022/06/16 13:12:18;;;;;;;;;;;;;;;48.27;8.56;101325.41;4418954;32;19953;-70
2022/06/16 13:14:49;;;;;;;;;;;;;;;48.32;8.59;101321.87;4418161;32;19981;-70
2022/06/16 13:17:16;;;;;;;;;;;;;;;48.71;8.32;101312.72;4414567;32;20404;-70
2022/06/16 13:19:50;;;;;;;;;;;;;;;47.69;8.87;101312.91;4422178;32;20011;-70
2022/06/16 13:22:22;;;;;;;;;;;;;;;49.27;8.16;101308.44;4418119;32;19989;-70
2022/06/16 13:30:17;;;;;;;;;;;;;;;51.25;7.30;101294.00;3939367;32;15727420;-70
2022/06/16 13:40:39;;;;;;;;;;;;;;;51.80;6.97;101296.59;3947456;32;15721458;-71
2022/06/16 13:51:25;;;;;;;;;;;;;;;51.81;7.04;101277.13;3945367;32;15724382;-70
2022/06/16 13:53:50;;;;;;;;;;;;;;;51.81;7.04;101277.13;4424587;32;19981;-70
2022/06/16 13:59:07;;;;;;;;;;;;;;;52.28;6.62;101284.69;3945295;32;15723583;-70
2022/06/16 14:01:33;;;;;;;;;;;;;;;52.28;6.62;101284.69;4429677;32;20326;-72
2022/06/16 14:09:14;;;;;;;;;;;;;;;50.29;7.70;101307.50;3944520;32;15725984;-70
2022/06/16 14:12:00;;;;;;;;;;;;;;;50.29;7.70;101307.50;4407425;32;19997;-72
2022/06/16 14:14:27;;;;;;;;;;;;;;;50.29;7.65;101297.75;4414507;32;19983;-72
2022/06/16 14:16:54;;;;;;;;;;;;;;;50.60;7.61;101288.06;4414211;32;20037;-71
2022/06/16 14:19:26;;;;;;;;;;;;;;;52.37;6.88;101277.31;4418526;32;19988;-71
2022/06/16 14:21:57;;;;;;;;;;;;;;;52.24;6.89;101288.38;4412548;32;20414;-71
2022/06/16 14:24:28;;;;;;;;;;;;;;;53.46;6.36;101301.37;4416518;32;20027;-71
2022/06/16 14:26:55;;;;;;;;;;;;;;;54.56;5.88;101298.66;4419630;32;19973;-71
2022/06/16 14:29:23;;;;;;;;;;;;;;;55.17;5.45;101293.69;4414706;32;20307;-71
2022/06/16 14:31:52;;;;;;;;;;;;;;;54.19;5.92;101300.63;4414559;32;20036;-72
2022/06/16 14:34:21;;;;;;;;;;;;;;;53.62;6.20;101294.78;4420620;32;21339;-72
2022/06/16 14:42:02;;;;;;;;;;;;;;;53.49;6.32;101302.91;3953090;32;15722322;-69
2022/06/16 14:44:47;;;;;;;;;;;;;;;53.49;6.32;101302.91;4427710;32;20089;-69
2022/06/16 14:52:30;;;;;;;;;;;;;;;52.36;6.97;101297.59;3954861;31;15718461;-71
2022/06/16 14:55:02;;;;;;;;;;;;;;;52.36;6.97;101297.59;4432270;32;20026;-71
2022/06/16 14:57:28;;;;;;;;;;;;;;;51.82;7.17;101293.63;4429417;32;19998;-71
2022/06/16 14:59:55;;;;;;;;;;;;;;;51.01;7.59;101294.25;4428276;32;20011;-71
2022/06/16 15:02:24;;;;;;;;;;;;;;;51.71;7.32;101294.19;4430582;32;19972;-71
2022/06/16 15:04:54;;;;;;;;;;;;;;;51.90;7.19;101287.78;4430636;32;20069;-71
2022/06/16 15:07:20;;;;;;;;;;;;;;;51.56;7.49;101299.16;4427134;32;20004;-71
2022/06/16 15:09:46;;;;;;;;;;;;;;;50.87;7.77;101290.16;4432347;32;20418;-71
2022/06/16 15:12:12;;;;;;;;;;;;;;;50.31;8.09;101274.66;4433256;32;19996;-71
2022/06/16 15:14:40;;;;;;;;;;;;;;;49.75;8.53;101273.19;4433226;32;19965;-70
2022/06/16 15:19:57;;;;;;;;;;;;;;;48.53;9.16;101281.47;4431075;32;20323;-71
2022/06/16 15:22:26;;;;;;;;;;;;;;;49.02;8.87;101272.56;4431337;32;20392;-71
2022/06/16 15:27:35;;;;;;;;;;;;;;;50.42;8.20;101275.62;3940115;32;15725383;-71
2022/06/16 15:30:03;;;;;;;;;;;;;;;51.70;7.53;101263.41;4423900;32;20425;-71
2022/06/16 15:38:16;;;;;;;;;;;;;;;56.40;5.35;101262.84;4427231;32;20330;-71
2022/06/16 15:40:43;;;;;;;;;;;;;;;56.65;5.32;101263.59;4425054;32;19989;-71
2022/06/16 15:43:11;;;;;;;;;;;;;;;55.54;5.83;101265.88;4427486;32;20291;-70
2022/06/16 15:45:38;;;;;;;;;;;;;;;54.60;6.32;101271.53;4425331;32;19992;-70
2022/06/16 15:48:05;;;;;;;;;;;;;;;53.89;6.63;101269.47;4423412;32;20004;-71
2022/06/16 15:50:31;;;;;;;;;;;;;;;53.31;6.88;101271.84;4411068;32;20051;-70
2022/06/16 15:52:59;;;;;;;;;;;;;;;51.97;7.58;101258.62;4427221;32;20076;-71
2022/06/16 15:55:28;;;;;;;;;;;;;;;52.70;7.20;101259.06;4427177;32;19993;-70
2022/06/16 15:57:55;;;;;;;;;;;;;;;52.38;7.32;101258.56;4424442;32;19993;-70
2022/06/16 16:00:23;;;;;;;;;;;;;;;52.57;7.26;101244.56;4426125;32;20013;-70
2022/06/16 16:02:49;;;;;;;;;;;;;;;51.43;7.83;101240.34;4422624;32;19980;-70
2022/06/16 16:05:17;;;;;;;;;;;;;;;50.83;8.22;101239.12;4427859;32;19957;-69
2022/06/16 16:07:42;;;;;;;;;;;;;;;49.91;8.64;101247.37;4424923;32;20189;-70